• Join FlightAware (Why Join?)
  • Login
  • US Flag 
07:38AM EDT


 

Airport Tracker/Info


-or-


 

Live Flight TrackerFlight Track Log ✈ SWA706 ✈ 02-Nov-2013 ✈ KOAK - KGEG

Flight Track Log - Related Links

Times and Time Zones

All times are in EDT time to prevent confusion due to time zone crossing. See the SWA706 flight status page for this flight to view local times or setup timezone preferences in your user account.

Time Position Orientation Groundspeed Altitude Reporting Facility
EDT Latitude Longitude Course Direction KTS MPH feet Rate Location/Type
09:27PM 37.7614 -122.2969 314° West 212 244 2,700  Level Oakland Center
09:28PM 37.8264 -122.2622 23° Northeast 269 310 5,900 3,300 Climbing Oakland Center
09:29PM 37.8897 -122.1981 39° Northeast 288 331 9,400 2,640 Climbing Oakland Center
09:30PM 37.9686 -122.1569 22° Northeast 319 367 11,300 2,400 Climbing Oakland Center
09:31PM 38.0597 -122.1203 18° North 343 395 14,400 2,460 Climbing Oakland Center
09:32PM 38.1569 -122.0811 18° North 360 414 16,400 2,100 Climbing Oakland Center
09:33PM 38.2617 -122.0375 18° North 388 447 18,700 2,220 Climbing Oakland Center
09:34PM 38.3692 -121.9942 18° North 402 463 20,900 2,220 Climbing Oakland Center
09:35PM 38.5019 -121.9406 18° North 410 472 23,300 2,040 Climbing Oakland Center
09:36PM 38.6175 -121.8942 17° North 427 491 25,100 1,620 Climbing Oakland Center
09:37PM 38.7400 -121.8433 18° North 446 513 26,700 1,560 Climbing Oakland Center
09:38PM 38.8614 -121.7933 18° North 454 522 28,300 1,860 Climbing Oakland Center
09:39PM 38.9842 -121.7419 18° North 459 528 30,500 1,680 Climbing Oakland Center
09:40PM 39.1031 -121.6922 18° North 452 520 31,800 1,260 Climbing Oakland Center
09:41PM 39.2233 -121.6422 18° North 452 520 33,100 1,080 Climbing Oakland Center
09:42PM 39.3472 -121.5917 18° North 459 528 34,000 420 Climbing Oakland Center
09:43PM 39.4714 -121.5400 18° North 464 534 34,000  Level Oakland Center
09:44PM 39.5850 -121.4917 18° North 465 535 34,000  Level Oakland Center
09:45PM 39.7061 -121.4417 18° North 462 532 34,000  Level Oakland Center
09:46PM 39.8289 -121.3892 18° North 465 535 34,000  Level Oakland Center
09:47PM 39.9500 -121.3364 18° North 464 534 34,000  Level Oakland Center
09:48PM 40.0964 -121.2739 18° North 464 534 34,000  Level Oakland Center
09:49PM 40.2181 -121.2225 18° North 463 533 34,000  Level Oakland Center
09:50PM 40.3383 -121.1717 18° North 459 528 34,000  Level Oakland Center
09:51PM 40.4572 -121.1175 19° North 454 522 34,000  Level Oakland Center
09:52PM 40.5564 -121.0744 18° North 459 528 34,000  Level Seattle Center
09:53PM 40.6806 -121.0200 18° North 457 526 34,000  Level Seattle Center
09:54PM 40.8036 -120.9669 18° North 464 534 34,000  Level Seattle Center
09:55PM 40.9300 -120.9119 18° North 475 547 34,000  Level Seattle Center
09:56PM 41.0561 -120.8558 19° North 479 551 34,000  Level Seattle Center
09:57PM 41.1875 -120.7986 18° North 492 566 34,000  Level Seattle Center
09:58PM 41.3125 -120.7444 18° North 493 567 34,000  Level Seattle Center
09:59PM 41.4478 -120.6828 19° North 498 573 34,000 960 Level Seattle Center
10:00PM 41.5731 -120.6253 19° North 483 556 36,000 960 Climbing Seattle Center
10:01PM 41.6933 -120.5714 18° North 462 532 36,000  Level Seattle Center
10:02PM 41.8103 -120.5192 18° North 451 519 36,000  Level Seattle Center
10:03PM 41.9300 -120.4653 19° North 455 524 36,000  Level Seattle Center
10:04PM 42.0742 -120.4000 19° North 455 524 36,000  Level Seattle Center
10:05PM 42.1931 -120.3456 19° North 454 522 36,000  Level Seattle Center
10:06PM 42.3147 -120.2906 18° North 462 532 36,000  Level Seattle Center
10:07PM 42.4364 -120.2344 19° North 463 533 36,000  Level Seattle Center
10:08PM 42.5547 -120.1775 20° North 456 525 36,000  Level Seattle Center
10:09PM 42.6739 -120.1228 19° North 452 520 36,000  Level Seattle Center
10:10PM 42.7950 -120.0661 19° North 458 527 36,000  Level Seattle Center
10:11PM 42.9147 -120.0108 19° North 458 527 36,000  Level Seattle Center
10:12PM 43.0367 -119.9522 19° North 463 533 36,000  Level Seattle Center
10:13PM 43.1619 -119.8939 19° North 473 544 36,000  Level Seattle Center
10:14PM 43.2881 -119.8350 19° North 478 550 36,000  Level Seattle Center
10:15PM 43.4219 -119.7719 19° North 478 550 36,000  Level Seattle Center
10:16PM 43.5447 -119.7122 19° North 470 541 36,000  Level Seattle Center
10:17PM 43.6694 -119.6511 20° North 474 545 36,000  Level Seattle Center
10:18PM 43.7950 -119.5889 20° North 480 552 36,000  Level Seattle Center
10:19PM 43.9200 -119.5286 19° North 479 551 36,000  Level Seattle Center
10:20PM 44.0425 -119.4681 20° North 472 543 36,000  Level Seattle Center
10:21PM 44.1656 -119.4072 20° North 471 542 36,000  Level Seattle Center
10:22PM 44.2903 -119.3469 19° North 474 545 36,000  Level Seattle Center
10:23PM 44.4144 -119.2858 19° North 478 550 36,000  Level Seattle Center
10:24PM 44.5378 -119.2239 20° North 476 548 36,000  Level Seattle Center
10:25PM 44.6850 -119.1514 19° North 472 543 36,000  Level Seattle Center
10:26PM 44.8086 -119.0894 20° North 474 545 36,000  Level Seattle Center
10:27PM 44.9344 -119.0269 19° North 481 554 36,000  Level Seattle Center
10:28PM 45.0608 -118.9642 19° North 484 557 36,000  Level Seattle Center
10:29PM 45.1819 -118.9008 20° North 473 544 36,000  Level Seattle Center
10:30PM 45.3017 -118.8383 20° North 463 533 36,000  Level Seattle Center
10:31PM 45.4244 -118.7750 20° North 468 539 36,000  Level Seattle Center
10:32PM 45.5469 -118.7125 20° North 470 541 36,000  Level Seattle Center
10:33PM 45.6656 -118.6503 20° North 462 532 36,000  Level Seattle Center
10:34PM 45.7842 -118.5892 20° North 458 527 36,000 -60 Level Seattle Center
10:35PM 45.9036 -118.5269 20° North 458 527 35,900 -1,320 Descending Seattle Center
10:36PM 46.0253 -118.4672 19° North 476 548 33,400 -2,760 Descending Seattle Center
10:37PM 46.1494 -118.4031 20° North 478 550 30,400 -2,760 Descending Seattle Center
10:38PM 46.2717 -118.3397 20° North 472 543 27,900 -2,700 Descending Seattle Center
10:39PM 46.4092 -118.2625 21° North 451 519 25,000 -2,580 Descending Seattle Center
10:40PM 46.5178 -118.2039 20° North 428 493 22,800 -2,040 Descending Seattle Center
10:41PM 46.6172 -118.1428 23° Northeast 403 464 20,900 -1,920 Descending Seattle Center
10:42PM 46.7072 -118.0769 27° Northeast 375 432 19,000 -1,860 Descending Seattle Center
10:43PM 46.7944 -118.0161 26° Northeast 353 406 17,200 -1,680 Descending Seattle Center
10:44PM 46.8853 -117.9506 26° Northeast 367 422 15,700 -1,200 Descending Seattle Center
10:45PM 46.9769 -117.8847 26° Northeast 365 420 14,800 -900 Descending Seattle Center
10:46PM 47.0661 -117.8236 25° Northeast 354 407 13,900 -1,020 Descending Seattle Center
10:47PM 47.1467 -117.7672 25° Northeast 322 371 12,800 -1,080 Descending Seattle Center
10:48PM 47.2231 -117.7122 26° Northeast 308 354 11,800 -1,020 Descending Seattle Center
10:49PM 47.2992 -117.6558 27° Northeast 307 353 10,800 -1,320 Descending Seattle Center
10:50PM 47.3733 -117.6042 25° Northeast 296 341 9,200 -1,740 Descending Seattle Center
10:51PM 47.4461 -117.5508 26° Northeast 292 336 7,400 -1,680 Descending Seattle Center
10:52PM 47.5142 -117.4831 34° Northeast 297 342 5,900 -1,080 Descending Seattle Center
10:53PM 47.5717 -117.4081 41° Northeast 273 314 5,300 -720 Descending Seattle Center
10:54PM 47.6292 -117.4008 North 222 255 4,500 -840 Descending Seattle Center
10:55PM 47.6675 -117.4411 325° Northwest 161 185 3,700 -780 Descending Seattle Center
10:56PM 47.6567 -117.4819 249° West 111 128 3,000 -720 Descending Seattle Center
10:57PM 47.6328 -117.5164 224° Southwest 119 137 2,300 -420 Descending Seattle Center
10:58PM 47.6222 -117.5311 223° Southwest 69 79 2,200 -120 Descending Seattle Center
11:00PM 47.6167 -117.5333 270° West  Level FlightAware Approximate